createdAt,value
2019-02-18T00:00:53.153Z,9.23
2019-02-18T00:03:21.195Z,9.80
2019-02-18T00:05:48.607Z,9.40
2019-02-18T00:08:16.117Z,9.95
2019-02-18T00:10:43.514Z,10.07
2019-02-18T00:13:11.072Z,10.70
2019-02-18T00:15:38.690Z,8.98
2019-02-18T00:18:06.115Z,11.05
2019-02-18T00:20:33.794Z,12.35
2019-02-18T00:23:01.276Z,9.45
2019-02-18T00:25:28.732Z,9.10
2019-02-18T00:27:56.196Z,11.02
2019-02-18T00:30:23.592Z,9.35
2019-02-18T00:32:51.101Z,10.57
2019-02-18T00:35:18.520Z,8.02
2019-02-18T00:37:45.938Z,8.30
2019-02-18T00:40:13.344Z,8.45
2019-02-18T00:42:40.735Z,9.02
2019-02-18T00:45:10.647Z,8.98
2019-02-18T00:47:38.103Z,8.60
2019-02-18T00:50:05.554Z,8.00
2019-02-18T00:52:33.727Z,9.27
2019-02-18T00:55:01.283Z,9.10
2019-02-18T00:57:28.751Z,8.60
2019-02-18T00:59:56.154Z,8.70
2019-02-18T01:02:23.657Z,9.40
2019-02-18T01:04:52.350Z,8.93
2019-02-18T01:07:19.784Z,12.52
2019-02-18T01:09:47.200Z,8.75
2019-02-18T01:12:14.623Z,8.38
2019-02-18T01:14:42.077Z,10.02
2019-02-18T01:17:09.543Z,9.80
2019-02-18T01:19:36.948Z,9.13
2019-02-18T01:22:04.351Z,7.45
2019-02-18T01:24:31.789Z,9.00
2019-02-18T01:26:59.176Z,7.57
2019-02-18T01:29:26.574Z,9.38
2019-02-18T01:31:54.167Z,9.00
2019-02-18T01:34:21.558Z,7.75
2019-02-18T01:36:48.971Z,10.38
2019-02-18T01:39:16.416Z,9.45
2019-02-18T01:41:43.816Z,9.25
2019-02-18T01:44:11.247Z,10.45
2019-02-18T01:46:38.808Z,8.70
2019-02-18T01:49:06.872Z,9.27
2019-02-18T01:51:34.437Z,11.27
2019-02-18T01:54:01.883Z,8.77
2019-02-18T01:56:29.297Z,10.90
2019-02-18T01:58:56.779Z,10.55
2019-02-18T02:01:24.181Z,10.10
2019-02-18T02:03:51.596Z,9.13
2019-02-18T02:06:19.026Z,8.23
2019-02-18T02:08:46.499Z,9.90
2019-02-18T02:11:13.890Z,9.27
2019-02-18T02:13:41.298Z,8.00
2019-02-18T02:16:08.703Z,9.23
2019-02-18T02:18:36.125Z,8.48
2019-02-18T02:21:04.442Z,8.23
2019-02-18T02:23:31.855Z,9.15
2019-02-18T02:25:59.245Z,9.10
2019-02-18T02:28:26.755Z,6.95
2019-02-18T02:30:54.146Z,8.50
2019-02-18T02:33:21.571Z,9.38
2019-02-18T02:35:49.005Z,9.00
2019-02-18T02:38:16.414Z,10.27
2019-02-18T02:40:43.813Z,9.48
2019-02-18T02:43:11.212Z,8.05
2019-02-18T02:45:38.739Z,7.97
2019-02-18T02:48:06.126Z,7.50
2019-02-18T02:50:33.546Z,8.30
2019-02-18T02:53:00.935Z,8.20
2019-02-18T02:55:28.527Z,9.35
2019-02-18T02:57:56.091Z,7.72
2019-02-18T03:00:23.492Z,7.40
2019-02-18T03:02:50.922Z,9.27
2019-02-18T03:05:18.323Z,8.65
2019-02-18T03:07:45.743Z,9.13
2019-02-18T03:10:13.144Z,9.15
2019-02-18T03:12:40.534Z,8.88
2019-02-18T03:15:09.297Z,9.05
2019-02-18T03:17:36.727Z,9.10
2019-02-18T03:20:04.132Z,9.40
2019-02-18T03:22:31.572Z,8.48
2019-02-18T03:25:19.545Z,7.68
2019-02-18T03:27:47.050Z,8.50
2019-02-18T03:33:16.873Z,16.55
2019-02-18T03:35:44.301Z,9.93
2019-02-18T03:38:11.683Z,6.78
2019-02-18T03:40:39.091Z,7.45
2019-02-18T03:43:06.544Z,8.68
2019-02-18T03:45:34.029Z,9.10
2019-02-18T03:48:01.458Z,8.30
2019-02-18T03:50:28.870Z,7.20
2019-02-18T03:52:56.308Z,6.68
2019-02-18T03:55:23.710Z,8.40
2019-02-18T03:57:51.147Z,9.85
2019-02-18T04:00:18.666Z,9.60
2019-02-18T04:02:46.070Z,7.40
2019-02-18T04:05:13.686Z,12.50
2019-02-18T04:07:41.393Z,9.52
2019-02-18T04:10:09.538Z,9.05
2019-02-18T04:12:37.253Z,8.10
2019-02-18T04:15:12.072Z,7.32
2019-02-18T04:17:39.483Z,9.75
2019-02-18T04:20:06.903Z,10.07
2019-02-18T04:22:34.309Z,9.27
2019-02-18T04:25:01.745Z,9.05
2019-02-18T04:27:29.176Z,10.57
2019-02-18T04:29:56.568Z,8.50
2019-02-18T04:32:24.001Z,9.70
2019-02-18T04:34:51.404Z,9.05
2019-02-18T04:37:18.954Z,7.90
2019-02-18T04:39:46.388Z,8.18
2019-02-18T04:42:13.818Z,7.80
2019-02-18T04:44:41.203Z,7.93
2019-02-18T04:47:08.614Z,7.80
2019-02-18T04:49:36.017Z,6.90
2019-02-18T04:52:03.462Z,8.80
2019-02-18T04:54:30.879Z,10.52
2019-02-18T04:56:58.281Z,9.85
2019-02-18T04:59:25.725Z,7.28
2019-02-18T05:01:53.120Z,9.13
2019-02-18T05:04:20.629Z,7.95
2019-02-18T05:06:48.020Z,8.60
2019-02-18T05:09:15.419Z,7.10
2019-02-18T05:11:42.820Z,7.20
2019-02-18T05:14:10.231Z,7.03
2019-02-18T05:16:37.628Z,7.55
2019-02-18T05:19:05.061Z,10.38
2019-02-18T05:21:32.601Z,11.65
2019-02-18T05:24:00.082Z,11.32
2019-02-18T05:26:27.503Z,23.38
2019-02-18T05:28:54.933Z,16.45
2019-02-18T05:31:22.318Z,17.20
2019-02-18T05:33:49.793Z,16.30
2019-02-18T05:36:17.211Z,16.08
2019-02-18T05:38:44.625Z,12.82
2019-02-18T05:41:12.123Z,10.27
2019-02-18T05:43:39.540Z,13.57
2019-02-18T05:46:08.708Z,8.30
2019-02-18T05:48:34.387Z,11.15
2019-02-18T05:51:02.395Z,8.52
2019-02-18T05:53:30.086Z,8.43
2019-02-18T05:55:57.648Z,9.57
2019-02-18T05:58:25.071Z,10.15
2019-02-18T06:00:52.535Z,9.05
2019-02-18T06:03:20.010Z,9.55
2019-02-18T06:05:47.669Z,8.10
2019-02-18T06:08:15.070Z,6.20
2019-02-18T06:10:42.631Z,6.18
2019-02-18T06:13:10.048Z,6.93
2019-02-18T06:15:37.439Z,8.75
2019-02-18T06:18:04.857Z,7.60
2019-02-18T06:20:32.250Z,7.72
2019-02-18T06:22:59.722Z,8.15
2019-02-18T06:25:27.116Z,7.85
2019-02-18T06:27:54.549Z,7.45
2019-02-18T06:30:21.954Z,7.65
2019-02-18T06:32:49.385Z,9.25
2019-02-18T06:35:16.797Z,8.02
2019-02-18T06:37:44.217Z,7.85
2019-02-18T06:40:11.688Z,7.53
2019-02-18T06:42:39.099Z,9.70
2019-02-18T06:45:06.824Z,8.07
2019-02-18T06:47:34.321Z,8.55
2019-02-18T06:50:01.758Z,7.82
2019-02-18T06:52:29.230Z,8.82
2019-02-18T06:54:56.615Z,7.65
2019-02-18T06:57:40.064Z,11.65
2019-02-18T07:00:07.521Z,8.73
2019-02-18T07:02:35.284Z,9.10
2019-02-18T07:05:19.725Z,9.65
2019-02-18T07:07:47.157Z,10.95
2019-02-18T07:10:14.644Z,9.50
2019-02-18T07:12:42.266Z,10.77
2019-02-18T07:15:09.669Z,8.55
2019-02-18T07:17:37.236Z,8.48
2019-02-18T07:22:42.043Z,8.90
2019-02-18T07:25:09.447Z,10.13
2019-02-18T07:27:37.184Z,9.35
2019-02-18T07:30:04.836Z,12.32
2019-02-18T07:32:32.235Z,9.10
2019-02-18T07:34:59.645Z,11.95
2019-02-18T07:37:28.104Z,13.80
2019-02-18T07:40:01.615Z,12.02
2019-02-18T07:42:22.989Z,11.80
2019-02-18T07:44:50.402Z,9.95
2019-02-18T07:47:17.870Z,9.57
2019-02-18T07:49:45.339Z,9.95
2019-02-18T07:52:12.901Z,10.38
2019-02-18T07:54:40.477Z,10.77
2019-02-18T07:57:07.920Z,12.57
2019-02-18T07:59:35.349Z,10.10
2019-02-18T08:02:02.786Z,13.95
2019-02-18T08:04:30.199Z,12.05
2019-02-18T08:06:57.789Z,11.73
2019-02-18T08:09:25.214Z,11.45
2019-02-18T08:11:52.642Z,14.30
2019-02-18T08:14:20.211Z,10.20
2019-02-18T08:16:47.698Z,12.05
2019-02-18T08:19:15.750Z,10.77
2019-02-18T08:21:42.554Z,12.40
2019-02-18T08:24:09.957Z,12.15
2019-02-18T08:26:37.592Z,9.25
2019-02-18T08:29:04.987Z,10.95
2019-02-18T08:31:32.407Z,10.98
2019-02-18T08:33:59.823Z,12.40
2019-02-18T08:36:27.441Z,11.70
2019-02-18T08:38:54.998Z,12.75
2019-02-18T08:41:22.411Z,12.50
2019-02-18T08:43:49.896Z,11.10
2019-02-18T08:46:19.100Z,9.98
2019-02-18T08:48:46.505Z,10.70
2019-02-18T08:51:13.977Z,12.35
2019-02-18T08:53:41.414Z,10.10
2019-02-18T08:56:09.161Z,10.88
2019-02-18T08:58:36.598Z,10.48
2019-02-18T09:01:04.247Z,11.27
2019-02-18T09:03:31.648Z,11.63
2019-02-18T09:05:59.089Z,12.10
2019-02-18T09:10:54.183Z,11.05
2019-02-18T09:13:21.611Z,12.90
2019-02-18T09:18:16.250Z,11.35
2019-02-18T09:20:43.671Z,13.30
2019-02-18T09:23:13.526Z,13.57
2019-02-18T09:25:43.435Z,14.15
2019-02-18T09:33:03.015Z,17.10
2019-02-18T09:35:30.453Z,18.35
2019-02-18T09:37:57.876Z,18.23
2019-02-18T09:40:25.555Z,13.73
2019-02-18T09:42:53.081Z,15.35
2019-02-18T09:45:20.573Z,16.77
2019-02-18T09:47:47.994Z,16.37
2019-02-18T09:50:15.462Z,16.35
2019-02-18T09:52:42.881Z,14.13
2019-02-18T09:55:10.338Z,16.50
2019-02-18T09:57:37.752Z,17.62
2019-02-18T10:00:06.694Z,16.35
2019-02-18T10:02:34.124Z,14.60
2019-02-18T10:05:01.829Z,17.10
2019-02-18T10:07:29.900Z,15.40
2019-02-18T10:09:57.619Z,16.90
2019-02-18T10:12:25.143Z,14.70
2019-02-18T10:14:52.555Z,16.50
2019-02-18T10:17:20.047Z,17.75
2019-02-18T10:19:47.882Z,16.42
2019-02-18T10:22:15.303Z,15.82
2019-02-18T10:24:50.721Z,17.55
2019-02-18T10:27:10.662Z,15.98
2019-02-18T10:29:38.268Z,15.18
2019-02-18T10:49:19.803Z,15.13
2019-02-18T10:51:42.184Z,15.80
2019-02-18T10:54:09.608Z,14.35
2019-02-18T10:56:37.085Z,15.30
2019-02-18T10:59:04.619Z,13.90
2019-02-18T11:01:32.089Z,13.73
2019-02-18T11:03:59.619Z,13.90
2019-02-18T11:06:27.249Z,15.82
2019-02-18T11:08:55.386Z,16.23
2019-02-18T11:11:22.799Z,15.98
2019-02-18T11:13:50.242Z,14.25
2019-02-18T11:16:17.675Z,12.45
2019-02-18T11:18:45.166Z,14.85
2019-02-18T11:35:54.606Z,13.75
2019-02-18T11:38:22.140Z,13.18
2019-02-18T11:40:49.577Z,13.50
2019-02-18T11:43:17.074Z,11.65
2019-02-18T11:48:11.658Z,11.10
2019-02-18T11:50:39.069Z,7.78
2019-02-18T11:53:06.543Z,9.88
2019-02-18T11:58:01.727Z,6.85
2019-02-18T12:00:29.141Z,7.05
2019-02-18T12:03:03.132Z,5.87
2019-02-18T12:05:25.010Z,7.40
2019-02-18T12:07:52.468Z,5.70
2019-02-18T12:10:19.934Z,5.82
2019-02-18T12:12:47.358Z,6.22
2019-02-18T12:15:14.837Z,5.70
2019-02-18T12:17:42.682Z,6.22
2019-02-18T12:20:10.909Z,5.70
2019-02-18T12:22:38.439Z,7.50
2019-02-18T12:32:26.961Z,6.70
2019-02-18T12:34:54.492Z,6.70
2019-02-18T12:37:22.624Z,6.55
2019-02-18T12:39:50.243Z,7.87
2019-02-18T12:42:17.778Z,6.72
2019-02-18T12:44:45.243Z,5.93
2019-02-18T12:47:12.821Z,6.80
2019-02-18T12:49:40.330Z,6.12
2019-02-18T12:52:07.735Z,7.22
2019-02-18T12:54:35.169Z,6.10
2019-02-18T12:57:02.593Z,6.07
2019-02-18T12:59:30.683Z,5.68
2019-02-18T13:01:57.746Z,5.40
2019-02-18T13:04:25.684Z,4.03
2019-02-18T13:06:53.281Z,4.30
2019-02-18T13:09:21.353Z,4.03
2019-02-18T13:11:58.495Z,5.90
2019-02-18T13:14:16.267Z,3.92
2019-02-18T13:16:43.714Z,4.00
2019-02-18T13:19:11.164Z,4.72
2019-02-18T13:21:38.634Z,4.03
2019-02-18T13:24:06.161Z,4.47
2019-02-18T13:26:35.177Z,5.32
2019-02-18T13:29:02.737Z,5.75
2019-02-18T13:31:30.166Z,5.07
2019-02-18T13:33:57.759Z,5.20
2019-02-18T13:36:25.183Z,5.25
2019-02-18T13:38:52.671Z,6.22
2019-02-18T13:41:20.123Z,4.80
2019-02-18T14:27:53.869Z,8.10
2019-02-18T14:30:21.292Z,8.00
2019-02-18T14:32:48.772Z,8.90
2019-02-18T14:35:16.228Z,8.60
2019-02-18T14:47:31.678Z,9.48
2019-02-18T14:49:59.164Z,11.55
2019-02-18T14:54:53.520Z,13.60
2019-02-18T14:57:20.930Z,11.20
2019-02-18T14:59:48.547Z,12.57
2019-02-18T15:02:16.089Z,12.43
2019-02-18T15:04:43.523Z,11.07
2019-02-18T15:07:11.816Z,12.25
2019-02-18T15:09:39.229Z,13.77
2019-02-18T15:12:07.091Z,10.45
2019-02-18T15:17:01.542Z,9.80
2019-02-18T15:21:55.915Z,9.05
2019-02-18T15:24:23.711Z,14.60
2019-02-18T15:26:51.177Z,12.65
2019-02-18T15:29:18.591Z,10.38
2019-02-18T15:31:46.123Z,10.65
2019-02-18T15:34:13.572Z,11.27
2019-02-18T15:36:40.975Z,11.07
2019-02-18T15:39:08.664Z,12.05
2019-02-18T15:41:36.153Z,9.93
2019-02-18T15:44:03.574Z,8.70
2019-02-18T15:46:31.031Z,8.93
2019-02-18T15:48:58.480Z,8.40
2019-02-18T15:51:26.008Z,10.75
2019-02-18T15:53:53.596Z,12.48
2019-02-18T15:56:21.068Z,12.00
2019-02-18T15:58:48.511Z,8.25
2019-02-18T16:08:37.261Z,8.60
2019-02-18T16:11:04.781Z,8.05
2019-02-18T16:13:32.243Z,8.00
2019-02-18T16:33:09.054Z,4.60
2019-02-18T16:35:36.475Z,5.20
2019-02-18T16:38:04.057Z,4.45
2019-02-18T16:40:31.500Z,4.28
2019-02-18T16:42:59.621Z,2.75
2019-02-18T16:45:26.607Z,2.50
2019-02-18T16:47:54.206Z,3.50
2019-02-18T16:50:21.654Z,3.00
2019-02-18T16:52:49.316Z,3.50
2019-02-18T16:55:16.730Z,3.80
2019-02-18T16:57:44.280Z,4.12
2019-02-18T17:00:11.691Z,3.47
2019-02-18T17:02:39.112Z,3.30
2019-02-18T17:05:06.598Z,2.87
2019-02-18T17:07:34.009Z,3.42
2019-02-18T17:10:01.521Z,3.37
2019-02-18T17:12:29.143Z,3.08
2019-02-18T17:14:56.572Z,2.58
2019-02-18T17:17:24.011Z,3.05
2019-02-18T17:19:51.409Z,4.37
2019-02-18T17:22:18.815Z,3.72
2019-02-18T17:24:46.239Z,2.50
2019-02-18T17:27:13.728Z,2.72
2019-02-18T17:29:41.382Z,4.10
2019-02-18T17:32:08.867Z,3.55
2019-02-18T17:34:36.371Z,3.15
2019-02-18T17:37:03.882Z,3.25
2019-02-18T17:39:31.613Z,3.70
2019-02-18T17:41:59.029Z,3.45
2019-02-18T17:44:26.499Z,3.85
2019-02-18T17:46:53.987Z,3.33
2019-02-18T17:49:21.401Z,2.97
2019-02-18T17:51:48.799Z,2.67
2019-02-18T17:54:16.243Z,2.70
2019-02-18T17:56:43.707Z,4.15
2019-02-18T17:59:11.096Z,2.30
2019-02-18T18:01:38.505Z,4.12
2019-02-18T18:04:05.981Z,3.70
2019-02-18T18:06:33.372Z,3.30
2019-02-18T18:09:00.796Z,3.15
2019-02-18T18:11:28.399Z,2.97
2019-02-18T18:13:56.927Z,3.10
2019-02-18T18:16:24.328Z,3.03
2019-02-18T18:18:51.729Z,3.15
2019-02-18T18:21:19.839Z,3.10
2019-02-18T18:23:47.440Z,3.42
2019-02-18T18:26:14.872Z,3.55
2019-02-18T18:28:42.369Z,3.08
2019-02-18T18:31:09.864Z,2.37
2019-02-18T18:33:37.297Z,4.05
2019-02-18T18:36:04.714Z,3.20
2019-02-18T18:38:32.251Z,2.85
2019-02-18T18:40:59.810Z,3.15
2019-02-18T18:43:33.548Z,3.58
2019-02-18T18:45:54.703Z,3.12
2019-02-18T18:48:22.103Z,3.55
2019-02-18T18:50:49.554Z,3.03
2019-02-18T18:53:17.028Z,2.75
2019-02-18T18:55:44.451Z,4.53
2019-02-18T18:58:11.848Z,2.70
2019-02-18T19:00:39.257Z,2.35
2019-02-18T19:03:06.702Z,2.67
2019-02-18T19:05:34.136Z,2.92
2019-02-18T19:08:01.725Z,3.95
2019-02-18T19:10:30.443Z,2.42
2019-02-18T19:12:57.909Z,3.25
2019-02-18T19:15:25.325Z,2.65
2019-02-18T19:17:52.894Z,2.60
2019-02-18T19:20:20.453Z,2.67
2019-02-18T19:22:47.881Z,3.00
2019-02-18T19:25:15.299Z,3.25
2019-02-18T19:27:42.756Z,3.65
2019-02-18T19:30:17.892Z,3.03
2019-02-18T19:32:45.317Z,3.42
2019-02-18T19:35:12.788Z,3.50
2019-02-18T19:37:40.263Z,5.12
2019-02-18T19:40:10.287Z,3.20
2019-02-18T19:42:37.721Z,4.45
2019-02-18T19:45:05.163Z,3.83
2019-02-18T19:47:32.567Z,3.00
2019-02-18T19:50:00.336Z,2.78
2019-02-18T19:52:27.682Z,3.50
2019-02-18T19:54:55.091Z,3.10
2019-02-18T19:57:22.535Z,4.37
2019-02-18T19:59:50.045Z,4.07
2019-02-18T20:02:17.466Z,3.08
2019-02-18T20:04:44.909Z,3.75
2019-02-18T20:07:12.352Z,2.72
2019-02-18T20:09:39.846Z,4.45
2019-02-18T20:12:07.267Z,2.53
2019-02-18T20:14:34.765Z,2.80
2019-02-18T20:17:02.199Z,3.28
2019-02-18T20:19:29.614Z,3.12
2019-02-18T20:21:57.059Z,2.90
2019-02-18T20:24:24.475Z,2.50
2019-02-18T20:26:51.921Z,2.70
2019-02-18T20:29:19.330Z,3.75
2019-02-18T20:31:46.791Z,3.50
2019-02-18T20:34:14.179Z,3.20
2019-02-18T20:36:41.858Z,2.85
2019-02-18T20:39:09.297Z,3.00
2019-02-18T20:41:36.754Z,3.05
2019-02-18T20:44:07.453Z,2.67
2019-02-18T20:46:31.665Z,3.60
2019-02-18T20:48:59.087Z,3.53
2019-02-18T20:51:26.482Z,3.62
2019-02-18T20:53:54.270Z,3.50
2019-02-18T20:56:21.735Z,3.15
2019-02-18T20:58:49.264Z,3.25
2019-02-18T21:01:16.675Z,3.08
2019-02-18T21:03:44.082Z,3.17
2019-02-18T21:06:11.551Z,3.17
2019-02-18T21:08:38.989Z,3.33
2019-02-18T21:11:06.412Z,3.55
2019-02-18T21:13:33.909Z,3.85
2019-02-18T21:16:01.343Z,4.32
2019-02-18T21:18:29.561Z,3.30
2019-02-18T21:20:57.041Z,3.70
2019-02-18T21:23:24.489Z,3.15
2019-02-18T21:25:51.924Z,2.70
2019-02-18T21:28:19.355Z,2.55
2019-02-18T21:30:46.791Z,3.20
2019-02-18T21:33:14.304Z,3.28
2019-02-18T21:35:41.740Z,3.15
2019-02-18T21:38:09.165Z,2.90
2019-02-18T21:40:36.577Z,3.35
2019-02-18T21:43:04.225Z,3.35
2019-02-18T21:45:31.640Z,3.55
2019-02-18T21:47:59.054Z,2.75
2019-02-18T21:50:26.503Z,3.60
2019-02-18T21:52:53.894Z,4.20
2019-02-18T21:55:21.295Z,2.75
2019-02-18T21:57:48.874Z,2.97
2019-02-18T22:00:18.771Z,4.20
2019-02-18T22:02:46.333Z,3.05
2019-02-18T22:05:13.759Z,2.60
2019-02-18T22:07:41.885Z,2.28
2019-02-18T22:10:09.274Z,4.15
2019-02-18T22:12:36.744Z,2.70
2019-02-18T22:15:04.346Z,3.00
2019-02-18T22:17:32.490Z,3.65
2019-02-18T22:19:59.941Z,2.95
2019-02-18T22:22:27.336Z,3.20
2019-02-18T22:24:54.742Z,3.87
2019-02-18T22:27:22.252Z,3.45
2019-02-18T22:29:49.666Z,3.95
2019-02-18T22:32:17.101Z,3.10
2019-02-18T22:34:44.624Z,2.97
2019-02-18T22:37:12.015Z,2.92
2019-02-18T22:39:39.420Z,3.70
2019-02-18T22:42:07.181Z,3.60
2019-02-18T22:44:41.777Z,2.60
2019-02-18T22:47:02.321Z,2.47
2019-02-18T22:49:29.815Z,3.50
2019-02-18T22:51:57.211Z,2.55
2019-02-18T22:54:24.858Z,3.03
2019-02-18T22:56:52.262Z,3.37
2019-02-18T22:59:19.707Z,3.00
2019-02-18T23:01:47.173Z,3.33
2019-02-18T23:04:14.561Z,2.83
2019-02-18T23:06:41.953Z,3.87
2019-02-18T23:09:09.350Z,3.87
2019-02-18T23:11:36.950Z,4.70
2019-02-18T23:14:04.333Z,3.47
2019-02-18T23:16:31.742Z,3.30
2019-02-18T23:18:59.147Z,3.40
2019-02-18T23:21:26.655Z,3.62
2019-02-18T23:23:54.051Z,3.53
2019-02-18T23:26:21.502Z,3.80
2019-02-18T23:28:48.916Z,3.35
2019-02-18T23:31:16.447Z,4.78
2019-02-18T23:33:43.864Z,3.58
2019-02-18T23:36:11.262Z,4.47
2019-02-18T23:38:38.658Z,7.32
2019-02-18T23:41:06.282Z,5.25
2019-02-18T23:43:33.689Z,4.50
2019-02-18T23:46:01.132Z,3.42
2019-02-18T23:48:28.543Z,4.97
2019-02-18T23:50:56.211Z,4.50
2019-02-18T23:53:23.855Z,4.30
2019-02-18T23:55:51.351Z,3.53
2019-02-18T23:58:18.763Z,4.30
